createdAt,value
2022-12-22T06:03:43.088Z,84.70
2022-12-22T06:06:11.557Z,75.80
2022-12-22T06:08:40.016Z,74.70
2022-12-22T06:11:08.681Z,74.10
2022-12-22T06:13:37.386Z,74.20
2022-12-22T06:16:06.888Z,76.00
2022-12-22T06:18:36.942Z,76.40
2022-12-22T06:21:05.899Z,78.10
2022-12-22T06:23:34.382Z,83.20
2022-12-22T06:26:03.765Z,82.70
2022-12-22T06:28:33.308Z,83.00
2022-12-22T06:31:01.794Z,81.90
2022-12-22T06:33:30.419Z,82.70
2022-12-22T06:36:04.919Z,83.40
2022-12-22T06:38:33.627Z,86.10
2022-12-22T06:41:02.429Z,84.80
2022-12-22T06:43:30.413Z,84.70
2022-12-22T06:45:59.443Z,75.20
2022-12-22T06:48:27.954Z,74.10
2022-12-22T06:51:01.532Z,72.90
2022-12-22T06:53:29.926Z,73.30
2022-12-22T06:55:58.503Z,73.60
2022-12-22T06:58:26.919Z,74.60
2022-12-22T07:00:57.690Z,76.40
2022-12-22T07:03:26.299Z,77.60
2022-12-22T07:11:00.915Z,86.30
2022-12-22T07:13:31.962Z,81.20
2022-12-22T07:16:02.103Z,79.10
2022-12-22T07:18:32.793Z,78.50
2022-12-22T07:21:02.704Z,78.70
2022-12-22T07:23:33.016Z,79.00
2022-12-22T07:26:02.188Z,79.40
2022-12-22T07:28:30.759Z,78.80
2022-12-22T07:30:59.235Z,79.40
2022-12-22T07:33:27.895Z,79.80
2022-12-22T07:36:05.273Z,80.20
2022-12-22T07:38:37.780Z,80.00
2022-12-22T07:41:29.082Z,80.90
2022-12-22T07:43:58.948Z,81.60
2022-12-22T07:51:49.730Z,84.10
2022-12-22T08:47:01.879Z,79.80
2022-12-22T08:49:30.896Z,80.00
2022-12-22T08:51:59.990Z,83.00
2022-12-22T08:54:28.992Z,84.10
2022-12-22T09:45:47.073Z,78.90
2022-12-22T09:48:16.373Z,79.20
2022-12-22T09:50:44.837Z,79.60
2022-12-22T09:53:21.362Z,79.20
2022-12-22T09:55:51.448Z,78.80
2022-12-22T09:58:27.053Z,78.70
2022-12-22T10:45:31.421Z,79.40
2022-12-22T10:48:00.112Z,79.70
2022-12-22T10:50:28.538Z,79.50
2022-12-22T10:53:00.143Z,79.80
2022-12-22T10:55:30.675Z,80.20
2022-12-22T10:58:17.596Z,80.70
2022-12-22T11:01:03.783Z,81.30
2022-12-22T11:03:33.396Z,81.60
2022-12-22T11:06:02.694Z,82.70
2022-12-22T11:08:33.210Z,84.00
2022-12-22T11:11:08.888Z,83.80
2022-12-22T11:13:54.212Z,85.40
2022-12-22T11:16:31.281Z,85.00
2022-12-22T11:21:56.030Z,81.70
2022-12-22T11:24:37.074Z,81.10
2022-12-22T11:27:21.962Z,80.60
2022-12-22T11:30:11.177Z,80.40
2022-12-22T11:33:08.391Z,80.90
2022-12-22T11:35:52.262Z,81.80
2022-12-22T11:38:32.717Z,83.10
2022-12-22T11:41:10.928Z,84.20
2022-12-22T11:43:55.233Z,83.80
2022-12-22T11:46:31.929Z,82.80
2022-12-22T11:49:18.817Z,82.20
2022-12-22T11:52:04.746Z,81.80
2022-12-22T11:55:11.866Z,81.00
2022-12-22T11:57:53.476Z,80.50
2022-12-22T12:00:28.419Z,80.60
2022-12-22T12:03:28.728Z,80.70
2022-12-22T12:06:49.635Z,81.00
2022-12-22T12:09:35.291Z,81.00
2022-12-22T12:12:12.710Z,80.80
2022-12-22T12:14:51.283Z,80.90
2022-12-22T12:17:36.373Z,80.80
2022-12-22T12:20:32.462Z,81.10
2022-12-22T12:23:20.912Z,81.00
2022-12-22T12:25:59.342Z,81.20
2022-12-22T12:28:41.624Z,81.50
2022-12-22T12:31:18.093Z,81.20
2022-12-22T12:33:52.371Z,81.90
2022-12-22T12:36:27.725Z,82.40
2022-12-22T12:41:48.536Z,80.10
2022-12-22T12:44:22.111Z,79.20
2022-12-22T12:47:09.593Z,78.50
2022-12-22T12:50:32.728Z,78.40
2022-12-22T12:53:10.912Z,78.30
2022-12-22T12:55:58.862Z,78.30
2022-12-22T12:58:57.856Z,78.30
2022-12-22T13:01:59.367Z,78.00
2022-12-22T13:05:14.377Z,77.80
2022-12-22T13:08:23.440Z,77.70
2022-12-22T13:12:10.683Z,77.50
2022-12-22T13:15:00.320Z,77.50
2022-12-22T13:17:41.791Z,77.90
2022-12-22T13:20:15.713Z,78.20
2022-12-22T13:22:45.371Z,78.40
2022-12-22T13:25:17.157Z,78.30
2022-12-22T13:27:46.892Z,78.30
2022-12-22T13:30:19.587Z,78.50
2022-12-22T13:32:50.213Z,79.50
2022-12-22T13:35:32.086Z,78.80
2022-12-22T13:38:02.289Z,79.00
2022-12-22T13:40:32.502Z,79.10
2022-12-22T13:43:06.752Z,79.40
2022-12-22T13:45:40.161Z,80.40
2022-12-22T13:50:48.332Z,79.70
2022-12-22T13:53:50.018Z,76.90
2022-12-22T13:56:17.042Z,75.70
2022-12-22T13:58:52.025Z,74.50
2022-12-22T14:01:21.212Z,74.10
2022-12-22T14:04:00.913Z,73.80
2022-12-22T14:06:32.751Z,73.70
2022-12-22T14:09:18.268Z,73.90
2022-12-22T14:11:52.562Z,73.70
2022-12-22T14:14:27.385Z,73.60
2022-12-22T14:16:59.040Z,73.60
2022-12-22T14:19:31.523Z,73.70
2022-12-22T14:22:07.026Z,73.80
2022-12-22T14:24:44.165Z,73.90
2022-12-22T14:27:25.011Z,73.70
2022-12-22T14:29:55.484Z,73.70
2022-12-22T14:32:38.632Z,73.90
2022-12-22T14:35:27.077Z,74.00
2022-12-22T14:38:09.013Z,73.70
2022-12-22T14:40:40.562Z,73.50
2022-12-22T14:43:30.341Z,73.70
2022-12-22T14:46:09.852Z,73.70
2022-12-22T14:48:41.765Z,79.60
2022-12-22T14:51:10.160Z,81.60
2022-12-22T14:53:46.472Z,82.50
2022-12-22T14:56:17.746Z,83.20
2022-12-22T14:58:48.293Z,83.00
2022-12-22T15:01:23.318Z,83.50
2022-12-22T15:04:07.156Z,83.70
2022-12-22T15:06:41.286Z,83.00
2022-12-22T15:12:18.358Z,82.50
2022-12-22T15:14:49.206Z,81.80
2022-12-22T15:17:25.454Z,81.30
2022-12-22T15:19:58.757Z,81.20
2022-12-22T15:22:27.190Z,83.30
2022-12-22T15:24:55.564Z,82.20
2022-12-22T15:27:24.241Z,80.80
2022-12-22T15:29:52.541Z,80.80
2022-12-22T15:32:22.352Z,80.60
2022-12-22T15:34:50.747Z,80.30
2022-12-22T15:37:19.212Z,80.20
2022-12-22T15:39:47.819Z,80.30
2022-12-22T15:42:16.103Z,80.00
2022-12-22T15:44:44.441Z,80.10
2022-12-22T15:47:13.940Z,80.10
2022-12-22T15:49:43.909Z,79.90
2022-12-22T15:52:14.714Z,79.80
2022-12-22T15:54:43.502Z,79.90
2022-12-22T15:57:14.439Z,79.80
2022-12-22T15:59:42.755Z,79.40
2022-12-22T16:02:13.217Z,77.70
2022-12-22T16:04:43.114Z,77.00
2022-12-22T16:07:13.125Z,76.80
2022-12-22T16:09:44.220Z,76.60
2022-12-22T16:12:15.808Z,77.20
2022-12-22T16:14:50.327Z,77.20
2022-12-22T16:17:21.367Z,76.40
2022-12-22T16:19:51.210Z,77.00
2022-12-22T16:22:27.550Z,77.20
2022-12-22T16:24:55.888Z,77.30
2022-12-22T16:27:24.542Z,77.40
2022-12-22T16:29:55.416Z,77.60
2022-12-22T16:32:27.737Z,77.80
2022-12-22T16:35:07.879Z,78.00
2022-12-22T16:37:36.287Z,78.20
2022-12-22T16:40:06.608Z,78.10
2022-12-22T16:45:26.934Z,78.70
2022-12-22T16:47:59.035Z,78.60
2022-12-22T16:50:33.262Z,78.70
2022-12-22T16:53:03.152Z,78.70
2022-12-22T16:55:33.445Z,79.00
2022-12-22T16:58:03.507Z,79.40
2022-12-22T17:00:38.222Z,79.60
2022-12-22T17:03:15.353Z,79.90
2022-12-22T17:05:49.753Z,79.90
2022-12-22T17:08:23.304Z,80.20
2022-12-22T17:10:53.058Z,80.50
2022-12-22T17:13:23.177Z,80.90
2022-12-22T17:15:51.663Z,81.30
2022-12-22T17:18:22.997Z,82.20
2022-12-22T21:45:29.667Z,89.60
2022-12-22T21:48:00.847Z,79.00
2022-12-22T21:50:32.166Z,79.10
2022-12-22T21:53:00.907Z,79.60
2022-12-22T21:55:33.309Z,79.70
2022-12-22T21:58:03.592Z,79.80
2022-12-22T22:00:33.378Z,79.90
2022-12-22T22:03:04.340Z,80.00
2022-12-22T22:05:36.043Z,80.40
2022-12-22T22:08:07.743Z,80.50
2022-12-22T22:10:38.255Z,80.80
2022-12-22T22:13:09.007Z,80.90
2022-12-22T22:15:37.873Z,81.40
2022-12-22T22:18:07.434Z,81.50
2022-12-22T22:20:36.522Z,82.00
2022-12-22T22:25:33.904Z,83.00
2022-12-22T22:28:02.549Z,83.60
2022-12-22T22:30:32.667Z,82.90
2022-12-22T22:33:01.206Z,82.80
2022-12-22T22:35:30.143Z,83.00
2022-12-22T22:37:58.448Z,83.20
2022-12-22T22:40:27.098Z,83.00
2022-12-22T22:42:56.824Z,83.10
2022-12-22T22:45:25.349Z,83.00
2022-12-22T22:47:55.394Z,83.10
2022-12-22T22:50:24.377Z,83.10
2022-12-22T22:52:52.783Z,83.20
2022-12-22T22:55:21.164Z,83.10
2022-12-22T22:57:49.592Z,81.40
2022-12-22T23:47:07.943Z,80.50
2022-12-22T23:49:36.440Z,80.60
2022-12-22T23:52:04.984Z,81.10
2022-12-22T23:54:33.504Z,80.50
2022-12-22T23:57:02.041Z,80.40
2022-12-22T23:59:30.437Z,80.40
